Time;durP1;ratioP1;P1;durP2;ratioP2;P2;SDS_P1;SDS_P2;PMS_P1;PMS_P2;Temp;Humidity;BMP_temperature;BMP_pressure;BME280_temperature;BME280_humidity;BME280_pressure;Samples;Min_cycle;Max_cycle;Signal;HPM_P1;HPM_P2
2021/06/21 00:00:14;;;;;;;7.07;6.03;;;;;;;21.05;41.83;100107.19;4837342;28;98001;-76
2021/06/21 00:02:42;;;;;;;8.95;5.90;;;;;;;21.01;42.02;100105.53;4846147;28;98113;-76
2021/06/21 00:05:12;;;;;;;5.95;5.47;;;;;;;20.98;42.20;100120.97;4848352;28;97997;-77
2021/06/21 00:07:41;;;;;;;6.15;5.65;;;;;;;20.93;42.03;100119.31;4847111;28;97863;-76
2021/06/21 00:10:10;;;;;;;6.70;5.90;;;;;;;20.90;41.92;100110.41;4848488;28;97113;-76
2021/06/21 00:12:41;;;;;;;5.97;5.30;;;;;;;20.90;41.80;100108.56;4850373;28;99767;-76
2021/06/21 00:15:10;;;;;;;5.85;5.35;;;;;;;20.89;41.99;100105.91;4848458;28;100488;-77
2021/06/21 00:17:38;;;;;;;8.48;5.38;;;;;;;20.86;41.93;100100.59;4838923;28;97396;-76
2021/06/21 00:20:07;;;;;;;6.82;5.70;;;;;;;20.83;42.00;100079.09;4849706;28;96887;-76
2021/06/21 00:22:35;;;;;;;6.95;5.93;;;;;;;20.81;42.13;100071.00;4849517;28;98123;-76
2021/06/21 00:25:05;;;;;;;7.07;6.38;;;;;;;20.79;42.57;100063.88;4850246;28;97956;-76
2021/06/21 00:27:34;;;;;;;12.52;6.95;;;;;;;20.75;42.51;100059.50;4853071;28;97848;-76
2021/06/21 00:30:04;;;;;;;6.10;5.50;;;;;;;20.73;42.68;100088.41;4832069;28;97467;-77
2021/06/21 00:32:31;;;;;;;6.53;5.22;;;;;;;20.67;42.60;100130.03;4849809;28;97224;-77
2021/06/21 00:34:59;;;;;;;10.07;6.28;;;;;;;20.63;42.61;100127.50;4849044;28;98740;-75
2021/06/21 00:37:27;;;;;;;7.07;6.00;;;;;;;20.59;43.05;100123.09;4848388;28;97924;-76
2021/06/21 00:39:55;;;;;;;7.35;6.65;;;;;;;20.57;43.19;100122.25;4847101;28;97469;-76
2021/06/21 00:42:24;;;;;;;7.43;6.25;;;;;;;20.54;43.25;100141.28;4847701;28;97476;-78
2021/06/21 00:44:52;;;;;;;7.15;6.43;;;;;;;20.46;43.39;100130.66;4851031;28;97718;-78
2021/06/21 00:47:19;;;;;;;8.40;6.55;;;;;;;20.42;43.01;100109.16;4853613;28;97991;-78
2021/06/21 00:49:47;;;;;;;6.80;6.07;;;;;;;20.38;43.15;100102.06;4852679;28;98042;-77
2021/06/21 00:52:18;;;;;;;8.32;6.00;;;;;;;20.34;43.32;100111.22;4850871;28;98080;-78
2021/06/21 00:54:45;;;;;;;8.30;5.95;;;;;;;20.28;43.89;100143.81;4845114;28;97641;-77
2021/06/21 00:57:14;;;;;;;7.30;6.28;;;;;;;20.19;43.77;100173.81;4845690;28;100767;-77
2021/06/21 00:59:43;;;;;;;8.45;6.60;;;;;;;20.13;44.19;100166.75;4847469;28;97628;-78
2021/06/21 01:02:11;;;;;;;9.55;7.05;;;;;;;20.08;44.61;100173.22;4848406;28;97962;-77
2021/06/21 01:04:39;;;;;;;11.35;7.18;;;;;;;20.01;44.23;100174.31;4865365;28;97854;-78
2021/06/21 01:07:08;;;;;;;10.60;6.88;;;;;;;19.95;44.73;100173.56;4863339;28;97611;-76
2021/06/21 01:09:36;;;;;;;10.32;7.78;;;;;;;19.92;44.72;100157.41;4850329;28;97153;-77
2021/06/21 01:12:11;;;;;;;10.18;7.20;;;;;;;19.88;45.22;100135.91;4850339;28;97061;-77
2021/06/21 01:14:44;;;;;;;9.68;6.95;;;;;;;19.87;44.84;100142.22;4850697;28;97964;-77
2021/06/21 01:17:18;;;;;;;9.32;6.80;;;;;;;19.83;45.12;100133.31;4849248;28;98597;-77
2021/06/21 01:20:23;;;;;;;7.05;6.47;;;;;;;19.76;46.36;100136.22;4862706;28;96804;-76
2021/06/21 01:23:22;;;;;;;8.32;7.43;;;;;;;19.71;45.99;100139.06;4835944;28;97684;-76
2021/06/21 01:25:55;;;;;;;10.82;8.15;;;;;;;19.67;45.45;100139.19;4845373;28;99407;-76
2021/06/21 01:28:37;;;;;;;9.02;7.18;;;;;;;19.61;46.24;100132.13;4848356;28;97192;-76
2021/06/21 01:31:09;;;;;;;11.02;7.80;;;;;;;19.59;45.74;100116.91;4845988;28;97815;-76
2021/06/21 01:33:40;;;;;;;10.23;7.68;;;;;;;19.59;45.67;100098.03;4818377;28;97818;-77
2021/06/21 01:36:09;;;;;;;8.70;8.00;;;;;;;19.57;45.79;100098.03;4849689;28;97857;-78
2021/06/21 01:38:41;;;;;;;8.82;7.82;;;;;;;19.54;46.01;100176.41;4849965;28;97656;-76
2021/06/21 01:41:14;;;;;;;9.75;8.25;;;;;;;19.40;46.63;100280.22;4848252;28;97101;-77
2021/06/21 01:43:43;;;;;;;8.68;6.38;;;;;;;19.23;46.63;100274.25;4824892;28;97659;-77
2021/06/21 01:46:12;;;;;;;12.10;6.93;;;;;;;18.58;49.74;100313.34;4845908;28;97018;-77
2021/06/21 01:48:46;;;;;;;9.48;5.93;;;;;;;20.12;56.88;100326.19;4843710;28;99213;-78
2021/06/21 01:51:15;;;;;;;9.15;6.22;;;;;;;20.70;44.70;100307.53;4852351;28;97449;-77
2021/06/21 01:53:45;;;;;;;9.02;5.53;;;;;;;17.76;52.45;100277.09;4851770;28;97992;-78
2021/06/21 01:56:17;;;;;;;7.72;5.53;;;;;;;17.56;51.25;100276.53;4855081;28;99705;-78
2021/06/21 01:58:48;;;;;;;7.75;6.10;;;;;;;17.58;50.85;100245.06;4856222;28;98227;-77
2021/06/21 02:01:18;;;;;;;9.02;5.43;;;;;;;17.38;51.46;100220.31;4857586;28;97221;-77
2021/06/21 02:03:50;;;;;;;8.27;5.68;;;;;;;17.34;51.60;100207.78;4859272;28;97372;-77
2021/06/21 02:06:18;;;;;;;7.57;5.32;;;;;;;17.47;50.64;100169.06;4861172;28;98295;-78
2021/06/21 02:08:50;;;;;;;12.93;6.10;;;;;;;17.66;50.32;100119.38;4845799;29;99765;-77
2021/06/21 02:11:18;;;;;;;11.88;6.45;;;;;;;17.76;50.26;100088.69;4837820;28;96927;-78
2021/06/21 02:13:49;;;;;;;7.60;5.43;;;;;;;17.68;50.86;100096.00;4846026;29;97123;-78
2021/06/21 02:16:21;;;;;;;9.95;6.18;;;;;;;17.72;50.95;100088.78;4856287;28;99320;-78
2021/06/21 02:18:51;;;;;;;12.90;7.35;;;;;;;17.81;50.98;100091.28;4862372;28;97785;-78
2021/06/21 02:21:20;;;;;;;13.80;8.57;;;;;;;18.35;54.28;100078.53;4862274;28;97656;-77
2021/06/21 02:23:49;;;;;;;12.77;9.13;;;;;;;18.62;55.43;100072.53;4861129;28;97076;-78
2021/06/21 02:26:19;;;;;;;12.38;7.85;;;;;;;18.37;54.67;100060.53;4863286;28;97725;-78
2021/06/21 02:28:47;;;;;;;8.50;6.50;;;;;;;18.30;54.26;100072.34;4833083;28;99914;-78
2021/06/21 02:31:16;;;;;;;8.88;7.50;;;;;;;18.33;53.91;100069.59;4858426;28;97384;-78
2021/06/21 02:33:44;;;;;;;8.80;7.22;;;;;;;18.34;53.38;100036.34;4856505;28;97370;-77
2021/06/21 02:36:13;;;;;;;8.68;6.90;;;;;;;18.29;53.67;100017.59;4853265;28;98273;-77
2021/06/21 02:38:41;;;;;;;9.60;6.65;;;;;;;18.22;53.39;100023.16;4856621;28;98263;-79
2021/06/21 02:41:09;;;;;;;8.48;7.15;;;;;;;18.25;53.44;100050.00;4855842;28;96649;-77
2021/06/21 02:43:37;;;;;;;10.13;7.07;;;;;;;18.22;53.10;100063.56;4869333;28;98421;-77
2021/06/21 02:46:05;;;;;;;11.68;6.80;;;;;;;18.23;53.02;100059.94;4871491;28;99424;-78
2021/06/21 02:48:33;;;;;;;9.63;7.15;;;;;;;18.27;52.85;100069.72;4855765;28;100868;-78
2021/06/21 02:51:01;;;;;;;9.50;6.57;;;;;;;18.27;52.87;100081.41;4856315;28;97649;-78
2021/06/21 02:53:37;;;;;;;8.25;6.13;;;;;;;18.32;52.87;100092.94;4855903;28;97420;-79
2021/06/21 02:56:10;;;;;;;9.15;7.15;;;;;;;18.34;52.73;100107.28;4852830;28;97786;-79
2021/06/21 02:58:40;;;;;;;10.55;7.45;;;;;;;18.36;52.44;100108.13;4854763;28;97236;-78
2021/06/21 03:01:12;;;;;;;6.53;5.93;;;;;;;18.26;52.81;100092.22;4855480;28;97023;-77
2021/06/21 03:03:43;;;;;;;7.20;6.10;;;;;;;18.27;52.68;100089.47;4849411;28;97841;-77
2021/06/21 03:06:11;;;;;;;9.25;6.28;;;;;;;18.26;52.80;100067.97;4847216;28;99275;-78
2021/06/21 03:08:40;;;;;;;13.02;6.63;;;;;;;18.25;52.75;100067.06;4829523;29;97485;-77
2021/06/21 03:11:08;;;;;;;6.88;6.28;;;;;;;18.30;52.85;100059.78;4844654;28;96963;-77
2021/06/21 03:13:37;;;;;;;11.68;6.57;;;;;;;18.32;52.57;100059.72;4845243;28;97158;-77
2021/06/21 03:16:06;;;;;;;7.30;6.53;;;;;;;18.33;52.56;100048.91;4828327;28;99432;-77
2021/06/21 03:18:34;;;;;;;7.22;6.28;;;;;;;18.26;52.76;100041.03;4845491;28;97955;-77
2021/06/21 03:21:02;;;;;;;6.80;6.13;;;;;;;18.22;52.87;100044.72;4846004;28;97213;-77
2021/06/21 03:23:32;;;;;;;7.38;6.47;;;;;;;18.24;53.04;100041.03;4844484;28;97819;-75
2021/06/21 03:26:04;;;;;;;9.05;7.30;;;;;;;18.26;53.04;100038.34;4864565;28;99279;-76
2021/06/21 03:28:32;;;;;;;8.30;6.05;;;;;;;18.26;53.00;100036.50;4851309;28;98519;-78
2021/06/21 03:31:01;;;;;;;8.85;5.78;;;;;;;18.28;53.16;100012.22;4849614;28;96901;-77
2021/06/21 03:33:30;;;;;;;6.88;5.38;;;;;;;18.27;53.15;100007.78;4848971;28;99230;-77
2021/06/21 03:35:58;;;;;;;6.28;5.60;;;;;;;18.33;52.99;100010.34;4848416;28;101328;-76
2021/06/21 03:38:28;;;;;;;6.20;5.57;;;;;;;18.33;52.66;100005.81;4847968;28;98061;-78
2021/06/21 03:40:58;;;;;;;6.22;5.78;;;;;;;18.28;53.05;100001.44;4843220;28;96928;-76
2021/06/21 03:43:28;;;;;;;7.38;6.55;;;;;;;18.28;53.12;99999.66;4842441;28;97943;-75
2021/06/21 03:45:58;;;;;;;7.22;6.35;;;;;;;18.26;53.11;99998.81;4842309;28;99455;-75
2021/06/21 03:48:27;;;;;;;9.82;6.72;;;;;;;18.27;53.18;100015.84;4843671;28;101184;-75
2021/06/21 03:50:55;;;;;;;7.88;7.07;;;;;;;18.27;53.15;100016.75;4843750;28;98280;-75
2021/06/21 03:53:25;;;;;;;7.78;7.00;;;;;;;18.15;53.64;100013.44;4843665;28;97908;-75
2021/06/21 03:55:53;;;;;;;8.82;6.68;;;;;;;18.16;53.15;100021.50;4844668;28;101160;-75
2021/06/21 03:58:21;;;;;;;7.68;6.93;;;;;;;18.21;53.09;100029.44;4842204;28;99757;-75
2021/06/21 04:00:50;;;;;;;8.35;7.32;;;;;;;18.22;53.17;100020.47;4843330;28;97331;-73
2021/06/21 04:03:18;;;;;;;10.20;7.53;;;;;;;18.24;53.06;99999.78;4828192;28;97323;-74
2021/06/21 04:05:46;;;;;;;7.85;7.07;;;;;;;18.24;53.14;100002.47;4841811;28;99406;-74
2021/06/21 04:08:16;;;;;;;7.28;6.63;;;;;;;18.24;53.25;100005.16;4843732;28;99322;-75
2021/06/21 04:10:45;;;;;;;7.85;6.90;;;;;;;18.26;53.13;99998.81;4841879;28;96825;-75
2021/06/21 04:13:13;;;;;;;7.82;7.05;;;;;;;18.38;52.88;99997.66;4825586;28;98506;-74
2021/06/21 04:15:41;;;;;;;9.52;7.00;;;;;;;18.40;52.99;100004.78;4840476;28;99500;-75
2021/06/21 04:18:12;;;;;;;7.63;6.53;;;;;;;18.41;52.96;100011.03;4845004;28;97589;-74
2021/06/21 04:20:41;;;;;;;8.50;7.35;;;;;;;18.42;53.04;100020.91;4840703;28;97829;-74
2021/06/21 04:23:09;;;;;;;10.63;7.18;;;;;;;18.42;53.12;100015.53;4839780;28;97824;-73
2021/06/21 04:25:38;;;;;;;16.65;14.82;;;;;;;18.35;53.48;100020.13;4838875;28;99288;-73
2021/06/21 04:28:06;;;;;;;10.50;9.38;;;;;;;18.49;53.04;100023.44;4840950;28;97950;-73
2021/06/21 04:30:35;;;;;;;14.25;11.65;;;;;;;18.53;52.64;100024.25;4836782;28;97019;-74
2021/06/21 04:33:03;;;;;;;12.30;11.05;;;;;;;18.51;53.02;100018.00;4840456;28;98288;-72
2021/06/21 04:35:34;;;;;;;10.18;9.18;;;;;;;18.51;52.78;100028.78;4821066;28;99571;-72
2021/06/21 04:38:02;;;;;;;12.15;10.95;;;;;;;18.55;52.82;100022.41;4839633;28;97634;-74
2021/06/21 04:40:32;;;;;;;16.88;12.93;;;;;;;18.53;53.20;100024.25;4838611;28;98153;-74
2021/06/21 04:43:00;;;;;;;12.32;10.52;;;;;;;18.67;52.86;100035.56;4835133;28;98497;-74
2021/06/21 04:45:27;;;;;;;14.30;12.82;;;;;;;19.13;54.13;100027.25;4821814;29;99767;-74
2021/06/21 04:48:00;;;;;;;13.13;11.93;;;;;;;19.23;54.68;100042.25;4831329;28;97768;-74
2021/06/21 04:50:28;;;;;;;10.63;9.63;;;;;;;18.90;54.56;100036.81;4841328;28;97083;-74
2021/06/21 04:52:57;;;;;;;15.02;10.63;;;;;;;18.79;54.41;100038.00;4842318;28;96960;-74
2021/06/21 04:55:25;;;;;;;9.48;8.57;;;;;;;18.68;54.78;100032.88;4831620;28;98916;-75
2021/06/21 04:57:53;;;;;;;10.65;9.57;;;;;;;18.59;54.45;100027.66;4842490;28;98862;-74
2021/06/21 05:00:23;;;;;;;11.48;10.27;;;;;;;18.26;55.06;100024.88;4840925;28;97606;-74
2021/06/21 05:02:51;;;;;;;11.10;9.98;;;;;;;18.14;55.11;100022.44;4826462;29;97096;-74
2021/06/21 05:05:20;;;;;;;13.65;11.25;;;;;;;17.97;54.87;100020.06;4850686;28;99448;-72
2021/06/21 05:07:50;;;;;;;12.95;11.00;;;;;;;17.88;54.74;100021.16;4838790;28;98270;-72
2021/06/21 05:10:20;;;;;;;14.68;12.15;;;;;;;17.81;54.83;100027.59;4838004;28;96767;-72
2021/06/21 05:12:48;;;;;;;12.80;11.50;;;;;;;17.83;54.93;100030.25;4839377;28;97068;-72
2021/06/21 05:15:17;;;;;;;15.50;12.23;;;;;;;17.72;55.13;100026.88;4840190;28;100206;-72
2021/06/21 05:17:45;;;;;;;13.90;12.25;;;;;;;17.66;55.08;100022.50;4841931;28;99302;-72
2021/06/21 05:20:14;;;;;;;14.98;11.73;;;;;;;17.73;54.88;100016.06;4837236;28;97777;-72
2021/06/21 05:22:42;;;;;;;17.02;12.98;;;;;;;17.66;55.06;100019.81;4854308;28;99320;-71
2021/06/21 05:25:11;;;;;;;13.55;11.45;;;;;;;17.67;54.97;100016.22;4841935;28;97543;-73
2021/06/21 05:27:41;;;;;;;12.13;10.48;;;;;;;17.65;55.15;100033.31;4822678;28;99723;-73
2021/06/21 05:30:10;;;;;;;17.67;12.23;;;;;;;17.69;55.07;100038.56;4839038;28;97191;-73
2021/06/21 05:32:38;;;;;;;14.15;11.15;;;;;;;17.72;54.92;100019.69;4842060;28;98168;-72
2021/06/21 05:35:07;;;;;;;12.00;10.60;;;;;;;17.78;54.93;100024.94;4840478;28;100538;-73
2021/06/21 05:37:35;;;;;;;14.98;11.18;;;;;;;17.72;54.95;100041.22;4840471;28;97746;-74
2021/06/21 05:40:03;;;;;;;11.25;10.05;;;;;;;17.81;54.66;100051.81;4825754;28;97215;-74
2021/06/21 05:42:30;;;;;;;12.90;10.98;;;;;;;17.98;54.08;100046.94;4825443;28;97149;-72
2021/06/21 05:45:00;;;;;;;10.77;9.70;;;;;;;18.04;54.03;100044.16;4816537;28;99452;-73
2021/06/21 05:47:28;;;;;;;10.55;9.38;;;;;;;18.15;54.00;100052.00;4816982;28;100646;-71
2021/06/21 05:49:55;;;;;;;11.32;9.93;;;;;;;17.91;54.63;100058.75;4855482;28;98472;-73
2021/06/21 05:52:23;;;;;;;15.05;9.93;;;;;;;17.75;55.02;100064.47;4840421;28;97322;-74
2021/06/21 05:54:51;;;;;;;12.02;10.57;;;;;;;17.74;54.85;100057.34;4816830;28;98235;-73
2021/06/21 05:57:19;;;;;;;10.95;9.85;;;;;;;17.65;55.23;100057.53;4841808;28;100397;-73
2021/06/21 05:59:46;;;;;;;10.52;9.20;;;;;;;17.57;55.28;100052.28;4826149;28;97306;-72
2021/06/21 06:02:15;;;;;;;15.18;10.02;;;;;;;17.54;55.16;100055.03;4842082;28;96773;-73
2021/06/21 06:04:43;;;;;;;10.20;9.20;;;;;;;17.66;54.81;100049.41;4842754;28;99264;-74
2021/06/21 06:07:11;;;;;;;10.90;9.20;;;;;;;17.73;54.71;100050.19;4840748;28;98037;-74
2021/06/21 06:09:39;;;;;;;9.60;8.68;;;;;;;17.75;55.02;100060.00;4842445;28;97612;-73
2021/06/21 06:12:08;;;;;;;9.13;8.38;;;;;;;17.80;54.83;100055.41;4840642;28;97158;-72
2021/06/21 06:14:36;;;;;;;10.65;9.20;;;;;;;18.29;53.33;100057.13;4841287;28;99746;-71
2021/06/21 06:17:04;;;;;;;10.25;9.00;;;;;;;18.45;53.29;100061.22;4857686;28;100302;-72
2021/06/21 06:19:33;;;;;;;9.70;8.75;;;;;;;18.46;53.62;100063.03;4842010;28;97624;-73
2021/06/21 06:22:01;;;;;;;13.27;11.88;;;;;;;18.53;53.01;100060.13;4826549;28;97320;-73
2021/06/21 06:24:29;;;;;;;14.00;12.05;;;;;;;18.54;52.83;100059.22;4840731;28;98590;-73
2021/06/21 06:26:57;;;;;;;13.60;12.18;;;;;;;18.48;52.92;100061.16;4842936;28;98591;-73
2021/06/21 06:29:28;;;;;;;11.38;9.85;;;;;;;18.42;52.96;100064.00;4842603;28;96945;-72
2021/06/21 06:31:56;;;;;;;8.68;7.00;;;;;;;18.43;52.67;100060.38;4840789;28;96855;-73
2021/06/21 06:34:25;;;;;;;9.23;8.32;;;;;;;18.42;52.76;100064.00;4832690;28;97941;-72
2021/06/21 06:36:55;;;;;;;10.07;9.07;;;;;;;18.35;52.61;100059.69;4841441;28;99453;-72
2021/06/21 06:39:25;;;;;;;7.28;6.43;;;;;;;18.20;52.89;100062.69;4824536;28;96713;-74
2021/06/21 06:41:53;;;;;;;6.75;6.07;;;;;;;18.18;52.85;100061.84;4836102;28;97822;-71
2021/06/21 06:44:21;;;;;;;7.25;5.47;;;;;;;18.26;52.91;100073.34;4839171;28;100450;-71
2021/06/21 06:46:49;;;;;;;5.53;5.05;;;;;;;18.40;52.28;100069.44;4837856;28;100901;-72
2021/06/21 06:49:17;;;;;;;6.35;4.90;;;;;;;18.40;52.21;100065.84;4839866;28;97939;-74
2021/06/21 06:51:46;;;;;;;5.40;4.88;;;;;;;18.34;52.65;100069.56;4831238;28;98530;-74
2021/06/21 06:54:23;;;;;;;5.55;5.05;;;;;;;18.04;53.40;100073.78;4837880;28;99857;-71
2021/06/21 06:56:59;;;;;;;5.60;5.20;;;;;;;18.02;53.62;100077.41;4839598;28;99274;-72
2021/06/21 06:59:29;;;;;;;8.35;4.90;;;;;;;18.02;53.50;100069.34;4841311;28;98028;-72
2021/06/21 07:01:57;;;;;;;9.13;4.57;;;;;;;18.04;53.33;100068.41;4843534;28;97296;-72
2021/06/21 07:04:25;;;;;;;4.47;3.92;;;;;;;18.04;53.28;100084.56;4842497;28;99577;-72
2021/06/21 07:06:53;;;;;;;4.55;4.18;;;;;;;17.98;53.69;100076.56;4842240;28;99417;-72
2021/06/21 07:09:23;;;;;;;4.55;3.88;;;;;;;18.04;53.40;100092.63;4828906;28;97404;-72
2021/06/21 07:11:52;;;;;;;5.05;4.55;;;;;;;18.07;53.41;100074.66;4841190;28;96932;-71
2021/06/21 07:14:21;;;;;;;5.20;4.70;;;;;;;18.08;53.09;100080.00;4855030;28;99319;-72
2021/06/21 07:16:49;;;;;;;6.40;4.07;;;;;;;18.07;53.28;100088.09;4841235;28;100210;-72
2021/06/21 07:19:19;;;;;;;7.35;4.07;;;;;;;18.01;53.42;100083.69;4843719;28;96851;-72
2021/06/21 07:21:47;;;;;;;4.85;4.35;;;;;;;18.09;53.03;100092.56;4844399;28;97121;-71
2021/06/21 07:24:16;;;;;;;6.75;3.85;;;;;;;18.15;53.25;100083.47;4840766;28;99582;-71
2021/06/21 07:26:46;;;;;;;4.55;3.38;;;;;;;18.16;53.02;100082.53;4844542;28;97827;-72
2021/06/21 07:29:14;;;;;;;6.20;3.95;;;;;;;18.13;53.17;100077.22;4836861;28;98938;-71
2021/06/21 07:31:42;;;;;;;6.25;3.85;;;;;;;18.11;53.08;100092.53;4844046;28;96902;-72
2021/06/21 07:34:10;;;;;;;5.38;3.50;;;;;;;18.11;52.96;100084.44;4842581;28;97656;-73
2021/06/21 07:36:38;;;;;;;6.53;3.38;;;;;;;18.22;52.75;100087.78;4844320;28;97562;-76
2021/06/21 07:39:07;;;;;;;3.90;3.45;;;;;;;18.30;52.64;100094.78;4821918;28;98112;-76
2021/06/21 07:41:35;;;;;;;8.23;3.80;;;;;;;18.36;52.33;100094.66;4843491;28;97278;-75
2021/06/21 07:44:04;;;;;;;4.90;3.33;;;;;;;18.35;52.48;100090.19;4842044;28;98009;-76
2021/06/21 07:46:32;;;;;;;4.00;3.65;;;;;;;18.41;52.27;100095.44;4842350;28;99182;-75
2021/06/21 07:49:01;;;;;;;3.72;3.38;;;;;;;18.43;52.26;100101.69;4827546;28;97080;-75
2021/06/21 07:51:30;;;;;;;5.13;3.95;;;;;;;18.44;52.01;100099.88;4843634;28;97818;-76
2021/06/21 07:53:58;;;;;;;6.63;3.78;;;;;;;18.47;52.04;100084.53;4828031;28;99989;-76
2021/06/21 07:56:26;;;;;;;7.90;3.95;;;;;;;18.59;51.77;100086.06;4842763;28;100179;-76
2021/06/21 07:58:54;;;;;;;4.70;4.28;;;;;;;18.62;51.41;100088.69;4844277;28;97472;-75
2021/06/21 08:01:24;;;;;;;7.72;3.80;;;;;;;18.59;51.56;100088.75;4828759;28;96832;-75
2021/06/21 08:03:53;;;;;;;5.05;3.70;;;;;;;18.61;51.50;100092.28;4843022;28;98265;-75
2021/06/21 08:06:21;;;;;;;4.10;3.70;;;;;;;18.64;51.50;100086.84;4843927;28;98036;-76
2021/06/21 08:08:48;;;;;;;4.25;3.70;;;;;;;18.72;51.24;100079.50;4846087;28;97339;-76
2021/06/21 08:11:16;;;;;;;4.55;4.10;;;;;;;18.75;51.24;100080.31;4845187;28;97421;-76
2021/06/21 08:13:44;;;;;;;4.68;4.07;;;;;;;18.86;50.93;100078.25;4845066;28;97709;-77
2021/06/21 08:16:12;;;;;;;4.50;4.10;;;;;;;18.91;50.94;100078.16;4861804;28;97760;-76
2021/06/21 08:18:41;;;;;;;7.32;5.15;;;;;;;18.96;50.69;100082.50;4845960;28;97911;-75
2021/06/21 08:21:09;;;;;;;7.50;4.10;;;;;;;19.01;50.59;100077.00;4845170;28;97185;-76
2021/06/21 08:23:37;;;;;;;5.32;3.97;;;;;;;18.98;50.98;100077.06;4844893;28;97576;-76
2021/06/21 08:26:04;;;;;;;7.20;4.15;;;;;;;19.02;50.83;100089.56;4845259;28;99289;-77
2021/06/21 08:28:32;;;;;;;5.53;4.13;;;;;;;19.06;50.83;100088.56;4844337;28;97310;-77
2021/06/21 08:31:00;;;;;;;7.80;4.75;;;;;;;19.09;50.71;100079.50;4843656;28;97340;-77
2021/06/21 08:33:28;;;;;;;5.43;4.22;;;;;;;19.12;50.58;100084.81;4842383;28;99278;-75
2021/06/21 08:35:57;;;;;;;7.78;4.28;;;;;;;19.13;50.39;100086.59;4844108;28;97454;-77
2021/06/21 08:38:25;;;;;;;6.45;3.88;;;;;;;19.15;50.33;100082.94;4843742;28;97089;-76
2021/06/21 08:40:52;;;;;;;4.65;4.22;;;;;;;19.25;50.12;100089.88;4842504;28;97091;-76
2021/06/21 08:43:20;;;;;;;9.25;4.40;;;;;;;19.35;50.40;100096.84;4843358;28;99375;-76
2021/06/21 08:45:48;;;;;;;6.93;4.53;;;;;;;19.41;49.98;100104.75;4843451;28;99360;-76
2021/06/21 08:48:16;;;;;;;6.10;4.40;;;;;;;19.44;50.19;100088.53;4843883;28;97480;-75
2021/06/21 08:50:44;;;;;;;7.28;5.45;;;;;;;19.52;50.05;100096.38;4843128;28;97758;-76
2021/06/21 08:53:13;;;;;;;8.45;4.25;;;;;;;19.58;49.96;100088.13;4845146;28;98055;-76
2021/06/21 08:55:41;;;;;;;10.75;4.80;;;;;;;19.69;49.48;100083.34;4843762;28;99283;-76
2021/06/21 08:58:09;;;;;;;8.45;4.00;;;;;;;19.79;49.69;100087.56;4826966;28;97010;-77
2021/06/21 09:00:37;;;;;;;6.93;4.45;;;;;;;19.91;49.06;100098.91;4842580;28;97103;-76
2021/06/21 09:03:05;;;;;;;8.00;5.13;;;;;;;19.96;48.59;100093.41;4842830;28;99574;-76
2021/06/21 09:05:34;;;;;;;8.55;4.00;;;;;;;20.03;48.58;100102.22;4843159;28;100667;-75
2021/06/21 09:08:04;;;;;;;9.98;4.25;;;;;;;20.08;48.17;100108.38;4843002;28;97326;-76
2021/06/21 09:10:34;;;;;;;8.43;3.72;;;;;;;20.09;48.18;100112.84;4843448;28;96786;-76
2021/06/21 09:13:05;;;;;;;6.20;3.75;;;;;;;20.10;47.98;100106.53;4842352;28;99240;-76
2021/06/21 09:15:34;;;;;;;9.60;3.55;;;;;;;20.10;47.90;100122.72;4842044;28;97660;-75
2021/06/21 09:18:25;;;;;;;6.85;3.47;;;;;;;20.01;45.68;100109.50;4842609;28;97359;-76
2021/06/21 09:21:17;;;;;;;11.82;3.35;;;;;;;20.05;45.95;100127.38;4858012;28;97733;-76
2021/06/21 09:24:15;;;;;;;6.20;3.38;;;;;;;20.03;46.73;100110.34;4841356;28;99464;-76
2021/06/21 09:26:45;;;;;;;13.32;4.00;;;;;;;20.14;47.23;100116.31;4843339;28;99102;-75
2021/06/21 09:29:13;;;;;;;5.85;3.60;;;;;;;20.16;46.94;100109.03;4843433;28;96934;-77
2021/06/21 09:31:52;;;;;;;10.18;3.15;;;;;;;20.18;45.87;100108.06;4843582;28;97532;-75
2021/06/21 09:34:22;;;;;;;5.38;2.72;;;;;;;20.20;46.54;100117.03;4842834;28;100173;-76
2021/06/21 09:36:50;;;;;;;8.85;3.00;;;;;;;20.20;46.36;100122.44;4842078;28;100328;-74
2021/06/21 09:39:23;;;;;;;5.90;2.97;;;;;;;20.20;45.55;100126.94;4841766;28;97020;-75
2021/06/21 09:42:09;;;;;;;8.88;3.38;;;;;;;20.28;45.86;100123.09;4826757;29;96887;-75
2021/06/21 09:44:39;;;;;;;10.25;4.00;;;;;;;20.50;44.15;100115.25;4856255;28;99908;-75
2021/06/21 09:47:21;;;;;;;11.52;3.80;;;;;;;20.40;44.38;100121.84;4842280;28;99105;-74
2021/06/21 09:50:11;;;;;;;12.80;3.25;;;;;;;20.39;43.92;100128.19;4836958;28;97722;-75
2021/06/21 09:52:47;;;;;;;6.03;3.03;;;;;;;20.42;44.87;100130.78;4841666;28;97224;-76
2021/06/21 09:55:25;;;;;;;8.23;3.92;;;;;;;20.64;43.07;100122.03;4840268;28;100355;-76
2021/06/21 09:58:07;;;;;;;7.95;3.70;;;;;;;20.76;42.86;100128.84;4843072;28;98033;-77
2021/06/21 10:00:36;;;;;;;11.30;3.50;;;;;;;20.82;42.72;100136.78;4839215;28;97589;-74
2021/06/21 10:03:12;;;;;;;8.40;3.30;;;;;;;20.86;42.12;100133.97;4840364;28;97816;-74
2021/06/21 10:05:43;;;;;;;8.20;3.13;;;;;;;20.75;42.85;100140.63;4841406;28;99686;-77
2021/06/21 10:08:12;;;;;;;10.05;2.55;;;;;;;20.67;42.91;100142.66;4840868;28;98763;-77
2021/06/21 10:10:42;;;;;;;6.47;2.70;;;;;;;20.59;43.16;100144.72;4842529;28;97264;-76
2021/06/21 10:13:12;;;;;;;5.85;2.72;;;;;;;20.54;43.04;100136.75;4841439;28;97485;-76
2021/06/21 10:15:40;;;;;;;4.25;2.40;;;;;;;20.54;43.29;100136.75;4822970;28;100705;-76
2021/06/21 10:18:08;;;;;;;5.57;2.63;;;;;;;20.57;43.61;100136.66;4836701;28;97673;-76
2021/06/21 10:20:36;;;;;;;5.18;2.38;;;;;;;20.59;43.56;100136.63;4840257;28;97385;-75
2021/06/21 10:23:06;;;;;;;5.22;2.42;;;;;;;20.56;43.16;100132.19;4840905;28;97242;-75
2021/06/21 10:25:34;;;;;;;7.45;2.92;;;;;;;20.84;41.83;100118.69;4839258;28;99071;-76
2021/06/21 10:28:04;;;;;;;8.35;2.20;;;;;;;20.72;42.53;100127.22;4843709;28;97684;-76
2021/06/21 10:30:34;;;;;;;8.27;2.67;;;;;;;20.96;40.97;100134.53;4858303;28;97215;-75
2021/06/21 10:33:03;;;;;;;6.13;2.35;;;;;;;20.79;41.79;100137.78;4845715;28;97803;-74
2021/06/21 10:35:32;;;;;;;4.72;1.85;;;;;;;20.79;41.87;100126.09;4844798;28;98002;-75
2021/06/21 10:38:04;;;;;;;5.18;2.30;;;;;;;20.82;41.86;100139.50;4845717;28;97874;-75
2021/06/21 10:40:32;;;;;;;4.72;2.28;;;;;;;21.06;40.62;100144.13;4842831;28;96811;-76
2021/06/21 10:43:00;;;;;;;6.82;1.98;;;;;;;20.91;41.35;100134.69;4845108;28;97441;-78
2021/06/21 10:45:28;;;;;;;7.67;2.23;;;;;;;21.18;40.24;100134.78;4845320;28;99471;-76
2021/06/21 10:48:11;;;;;;;5.05;2.50;;;;;;;20.99;40.14;100129.03;4830662;28;98775;-75
2021/06/21 10:50:51;;;;;;;4.45;1.67;;;;;;;21.05;40.41;100130.66;4847858;28;97899;-78
2021/06/21 10:53:19;;;;;;;6.82;2.05;;;;;;;21.11;41.06;100134.06;4844007;28;97133;-77
2021/06/21 10:55:49;;;;;;;7.15;1.83;;;;;;;21.16;41.12;100133.94;4828344;29;99122;-76
2021/06/21 10:58:41;;;;;;;5.55;2.15;;;;;;;21.20;41.02;100141.91;4829068;28;99771;-76
2021/06/21 11:01:22;;;;;;;5.15;2.33;;;;;;;21.27;40.90;100127.22;4843566;28;97724;-75
2021/06/21 11:03:52;;;;;;;4.38;1.92;;;;;;;21.32;40.94;100127.97;4844369;28;97307;-75
2021/06/21 11:06:40;;;;;;;5.68;2.08;;;;;;;21.39;40.92;100134.94;4844744;28;99529;-76
2021/06/21 11:09:09;;;;;;;5.30;1.90;;;;;;;21.43;40.94;100139.34;4845356;28;97583;-76
2021/06/21 11:11:44;;;;;;;6.20;2.70;;;;;;;21.49;40.92;100127.41;4846157;28;97549;-75
2021/06/21 11:14:15;;;;;;;4.78;2.15;;;;;;;21.48;40.97;100125.63;4814362;28;97137;-77
2021/06/21 11:16:44;;;;;;;4.82;2.58;;;;;;;21.53;40.89;100126.34;4843056;28;100704;-75
2021/06/21 11:19:35;;;;;;;8.32;2.42;;;;;;;21.36;39.29;100123.34;4846033;28;98301;-76
2021/06/21 11:22:07;;;;;;;3.40;1.70;;;;;;;21.39;41.07;100128.66;4829439;28;97467;-76
2021/06/21 11:25:02;;;;;;;5.35;2.53;;;;;;;21.23;38.87;100144.53;4846321;28;97788;-75
2021/06/21 11:27:41;;;;;;;3.58;1.92;;;;;;;21.19;40.50;100164.50;4845715;28;98107;-77
2021/06/21 11:30:37;;;;;;;4.18;1.90;;;;;;;21.10;40.39;100128.69;4845085;28;100831;-77
2021/06/21 11:33:09;;;;;;;3.45;3.03;;;;;;;21.16;41.20;100134.81;4812606;28;97867;-76
2021/06/21 11:36:00;;;;;;;2.75;1.70;;;;;;;21.15;39.70;100135.75;4859841;28;97305;-76